createdAt,value
2018-12-13T00:00:06.212Z,49.90
2018-12-13T00:02:36.767Z,50.07
2018-12-13T00:05:08.082Z,49.58
2018-12-13T00:07:37.334Z,49.97
2018-12-13T00:10:06.792Z,50.74
2018-12-13T00:12:36.336Z,50.59
2018-12-13T00:15:06.130Z,50.35
2018-12-13T00:17:35.413Z,50.85
2018-12-13T00:20:05.134Z,50.45
2018-12-13T00:22:34.523Z,51.68
2018-12-13T00:25:04.203Z,51.12
2018-12-13T00:27:33.599Z,51.54
2018-12-13T00:30:03.022Z,51.59
2018-12-13T00:32:32.480Z,51.59
2018-12-13T00:35:02.207Z,51.68
2018-12-13T00:37:31.468Z,51.92
2018-12-13T00:40:00.662Z,52.15
2018-12-13T00:42:30.124Z,54.15
2018-12-13T00:44:59.780Z,55.45
2018-12-13T00:47:29.205Z,58.04
2018-12-13T00:49:58.505Z,57.74
2018-12-13T00:52:28.134Z,58.00
2018-12-13T00:54:57.724Z,58.77
2018-12-13T00:57:27.441Z,61.37
2018-12-13T00:59:56.840Z,61.67
2018-12-13T01:02:26.473Z,62.07
2018-12-13T01:04:56.095Z,62.61
2018-12-13T01:07:25.352Z,63.02
2018-12-13T01:09:54.891Z,63.70
2018-12-13T01:12:24.111Z,63.55
2018-12-13T01:14:53.570Z,64.20
2018-12-13T01:17:23.020Z,64.48
2018-12-13T01:19:52.350Z,64.77
2018-12-13T01:22:21.892Z,65.57
2018-12-13T01:24:51.315Z,65.68
2018-12-13T01:27:20.845Z,66.08
2018-12-13T01:29:50.252Z,66.55
2018-12-13T01:32:19.712Z,66.69
2018-12-13T01:34:49.287Z,66.81
2018-12-13T01:37:19.000Z,67.32
2018-12-13T01:39:48.779Z,67.86
2018-12-13T01:42:18.167Z,67.44
2018-12-13T01:44:47.843Z,67.81
2018-12-13T01:47:17.531Z,68.35
2018-12-13T01:49:46.859Z,68.47
2018-12-13T01:52:16.310Z,68.83
2018-12-13T01:54:46.914Z,68.39
2018-12-13T01:57:16.700Z,68.33
2018-12-13T01:59:46.298Z,68.74
2018-12-13T02:02:15.629Z,68.28
2018-12-13T02:04:45.224Z,69.11
2018-12-13T02:07:15.060Z,69.67
2018-12-13T02:09:44.643Z,70.17
2018-12-13T02:12:14.064Z,70.61
2018-12-13T02:14:43.755Z,71.90
2018-12-13T02:17:13.161Z,72.54
2018-12-13T02:19:42.647Z,71.82
2018-12-13T02:22:11.949Z,72.80
2018-12-13T02:24:41.500Z,73.86
2018-12-13T02:27:10.888Z,73.11
2018-12-13T02:29:40.304Z,73.65
2018-12-13T02:32:09.683Z,73.89
2018-12-13T02:34:39.347Z,73.69
2018-12-13T02:37:09.083Z,74.10
2018-12-13T02:39:38.564Z,74.11
2018-12-13T02:42:08.072Z,73.95
2018-12-13T02:44:37.460Z,73.52
2018-12-13T02:47:06.725Z,73.27
2018-12-13T02:49:36.313Z,72.90
2018-12-13T02:52:05.862Z,72.46
2018-12-13T02:54:35.233Z,72.30
2018-12-13T02:57:04.491Z,71.91
2018-12-13T02:59:34.227Z,71.66
2018-12-13T03:02:03.816Z,71.81
2018-12-13T03:04:33.164Z,72.44
2018-12-13T03:07:03.320Z,72.53
2018-12-13T03:09:33.017Z,71.85
2018-12-13T03:12:02.636Z,71.19
2018-12-13T03:14:31.908Z,70.00
2018-12-13T03:17:01.254Z,70.19
2018-12-13T03:19:30.788Z,69.70
2018-12-13T03:22:00.333Z,69.45
2018-12-13T03:24:31.087Z,68.80
2018-12-13T03:27:00.869Z,67.69
2018-12-13T03:29:30.343Z,66.45
2018-12-13T03:31:59.814Z,67.75
2018-12-13T03:34:29.184Z,66.63
2018-12-13T03:36:59.078Z,66.07
2018-12-13T03:39:28.671Z,65.87
2018-12-13T03:41:58.483Z,64.48
2018-12-13T03:44:27.900Z,63.86
2018-12-13T03:46:57.367Z,64.15
2018-12-13T03:49:26.735Z,63.81
2018-12-13T03:51:56.127Z,64.26
2018-12-13T03:54:25.819Z,64.00
2018-12-13T03:56:55.530Z,63.30
2018-12-13T03:59:25.142Z,63.19
2018-12-13T04:01:55.346Z,63.97
2018-12-13T04:04:24.904Z,63.97
2018-12-13T04:06:54.569Z,64.79
2018-12-13T04:09:24.483Z,65.62
2018-12-13T04:11:53.894Z,66.29
2018-12-13T04:14:23.527Z,65.48
2018-12-13T04:16:52.862Z,66.14
2018-12-13T04:19:22.165Z,65.21
2018-12-13T04:21:51.742Z,64.56
2018-12-13T04:24:21.335Z,64.80
2018-12-13T04:26:50.891Z,65.21
2018-12-13T04:29:20.570Z,64.67
2018-12-13T04:31:50.265Z,65.27
2018-12-13T04:34:19.759Z,66.02
2018-12-13T04:36:49.521Z,66.46
2018-12-13T04:39:19.105Z,66.27
2018-12-13T04:41:48.736Z,66.99
2018-12-13T04:44:18.260Z,66.48
2018-12-13T04:46:48.499Z,66.85
2018-12-13T04:49:17.784Z,67.39
2018-12-13T04:51:47.027Z,68.35
2018-12-13T04:54:16.922Z,68.27
2018-12-13T04:56:46.125Z,68.75
2018-12-13T04:59:15.931Z,69.56
2018-12-13T05:01:45.896Z,69.72
2018-12-13T05:04:15.355Z,69.15
2018-12-13T05:06:45.005Z,69.37
2018-12-13T05:09:14.619Z,69.56
2018-12-13T05:11:43.864Z,69.95
2018-12-13T05:14:13.170Z,69.79
2018-12-13T05:16:42.655Z,70.50
2018-12-13T05:19:12.004Z,70.00
2018-12-13T05:21:41.606Z,70.84
2018-12-13T05:24:11.005Z,70.94
2018-12-13T05:26:40.734Z,70.94
2018-12-13T05:29:10.033Z,70.66
2018-12-13T05:31:39.604Z,71.06
2018-12-13T05:34:09.441Z,70.67
2018-12-13T05:36:38.948Z,71.05
2018-12-13T05:39:09.229Z,71.60
2018-12-13T05:41:38.789Z,71.45
2018-12-13T05:44:08.159Z,72.60
2018-12-13T05:46:37.525Z,73.33
2018-12-13T05:49:06.887Z,74.84
2018-12-13T05:51:36.296Z,74.92
2018-12-13T05:54:05.930Z,75.06
2018-12-13T05:56:35.850Z,75.44
2018-12-13T05:59:06.225Z,75.76
2018-12-13T06:01:35.965Z,75.31
2018-12-13T06:04:05.462Z,75.21
2018-12-13T06:06:35.011Z,74.94
2018-12-13T06:09:06.340Z,74.85
2018-12-13T06:11:36.076Z,75.72
2018-12-13T06:14:05.510Z,76.44
2018-12-13T06:16:35.520Z,75.85
2018-12-13T06:19:05.039Z,75.52
2018-12-13T06:21:37.052Z,75.88
2018-12-13T06:24:06.406Z,75.95
2018-12-13T06:26:36.076Z,76.21
2018-12-13T06:29:05.504Z,76.73
2018-12-13T06:31:35.022Z,76.89
2018-12-13T06:34:04.546Z,77.13
2018-12-13T06:36:34.116Z,76.75
2018-12-13T06:39:06.022Z,76.73
2018-12-13T06:41:36.526Z,76.14
2018-12-13T06:44:06.232Z,76.88
2018-12-13T06:46:35.600Z,76.61
2018-12-13T06:49:04.968Z,76.72
2018-12-13T06:51:34.811Z,76.18
2018-12-13T06:54:04.314Z,75.64
2018-12-13T06:56:33.996Z,75.65
2018-12-13T06:59:03.580Z,75.24
2018-12-13T07:01:33.003Z,75.04
2018-12-13T07:04:02.554Z,74.50
2018-12-13T07:06:32.048Z,74.06
2018-12-13T07:09:01.402Z,73.29
2018-12-13T07:11:30.772Z,72.84
2018-12-13T07:14:00.462Z,72.08
2018-12-13T07:16:30.222Z,71.41
2018-12-13T07:19:00.459Z,69.84
2018-12-13T07:21:30.106Z,69.66
2018-12-13T07:23:59.713Z,68.58
2018-12-13T07:26:29.676Z,67.20
2018-12-13T07:28:59.344Z,66.82
2018-12-13T07:31:29.387Z,66.26
2018-12-13T07:33:58.944Z,65.90
2018-12-13T07:36:28.514Z,64.83
2018-12-13T07:38:58.032Z,62.89
2018-12-13T07:41:28.486Z,60.87
2018-12-13T07:43:58.432Z,60.97
2018-12-13T07:46:27.762Z,60.92
2018-12-13T07:48:57.020Z,61.07
2018-12-13T07:51:26.957Z,60.48
2018-12-13T07:53:56.479Z,59.45
2018-12-13T07:56:26.145Z,58.74
2018-12-13T07:58:56.200Z,59.14
2018-12-13T08:01:25.830Z,59.00
2018-12-13T08:03:55.892Z,56.66
2018-12-13T08:06:25.772Z,56.73
2018-12-13T08:08:55.102Z,57.21
2018-12-13T08:11:24.817Z,57.25
2018-12-13T08:13:54.671Z,57.19
2018-12-13T08:16:24.037Z,55.87
2018-12-13T08:18:55.560Z,55.89
2018-12-13T08:21:26.849Z,55.91
2018-12-13T08:23:56.380Z,57.06
2018-12-13T08:26:25.799Z,56.93
2018-12-13T08:28:55.665Z,56.00
2018-12-13T08:31:24.981Z,55.35
2018-12-13T08:33:54.510Z,55.68
2018-12-13T08:36:25.319Z,54.80
2018-12-13T08:38:54.969Z,52.49
2018-12-13T08:41:24.480Z,53.27
2018-12-13T08:43:54.066Z,52.43
2018-12-13T08:46:23.730Z,52.33
2018-12-13T08:48:53.257Z,50.43
2018-12-13T08:51:22.838Z,49.37
2018-12-13T08:53:52.293Z,48.14
2018-12-13T08:56:21.526Z,46.60
2018-12-13T08:58:50.940Z,43.94
2018-12-13T09:01:20.799Z,42.67
2018-12-13T09:03:50.513Z,42.01
2018-12-13T09:06:20.365Z,41.98
2018-12-13T09:08:50.135Z,41.41
2018-12-13T09:11:19.778Z,40.97
2018-12-13T09:13:49.406Z,40.59
2018-12-13T09:16:19.055Z,41.15
2018-12-13T09:18:48.880Z,40.84
2018-12-13T09:21:18.804Z,40.79
2018-12-13T09:23:48.013Z,41.06
2018-12-13T09:26:17.584Z,41.93
2018-12-13T09:28:47.323Z,40.66
2018-12-13T09:31:16.737Z,39.95
2018-12-13T09:33:47.606Z,40.74
2018-12-13T09:36:17.395Z,40.39
2018-12-13T09:38:47.099Z,41.04
2018-12-13T09:41:16.555Z,40.54
2018-12-13T09:43:46.170Z,40.60
2018-12-13T09:46:15.691Z,39.52
2018-12-13T09:48:45.271Z,40.17
2018-12-13T09:51:14.572Z,39.58
2018-12-13T09:53:44.422Z,39.53
2018-12-13T09:56:13.965Z,39.88
2018-12-13T09:58:43.231Z,39.95
2018-12-13T10:01:13.158Z,39.59
2018-12-13T10:03:42.620Z,38.72
2018-12-13T10:06:12.224Z,38.49
2018-12-13T10:08:46.229Z,38.08
2018-12-13T10:11:13.605Z,37.82
2018-12-13T10:13:43.491Z,37.68
2018-12-13T10:16:13.129Z,38.08
2018-12-13T10:18:42.852Z,38.51
2018-12-13T10:21:12.150Z,37.79
2018-12-13T10:23:41.460Z,37.58
2018-12-13T10:26:11.161Z,37.06
2018-12-13T10:28:41.191Z,37.51
2018-12-13T10:31:10.723Z,37.27
2018-12-13T10:33:41.465Z,36.38
2018-12-13T10:36:11.074Z,35.85
2018-12-13T10:38:40.510Z,35.09
2018-12-13T10:41:10.379Z,36.51
2018-12-13T10:43:39.728Z,35.46
2018-12-13T10:46:09.361Z,35.43
2018-12-13T10:48:38.866Z,35.31
2018-12-13T10:51:08.473Z,34.00
2018-12-13T10:53:38.063Z,33.75
2018-12-13T10:56:07.623Z,34.05
2018-12-13T10:58:36.892Z,34.49
2018-12-13T11:01:11.920Z,35.24
2018-12-13T11:03:41.403Z,34.33
2018-12-13T11:06:10.831Z,35.00
2018-12-13T11:08:40.559Z,35.13
2018-12-13T11:11:09.895Z,34.86
2018-12-13T11:13:39.429Z,35.36
2018-12-13T11:16:09.260Z,34.65
2018-12-13T11:18:38.745Z,35.66
2018-12-13T11:21:08.503Z,35.87
2018-12-13T11:23:37.731Z,35.08
2018-12-13T11:26:07.283Z,35.80
2018-12-13T11:30:45.170Z,36.49
2018-12-13T11:33:14.699Z,36.23
2018-12-13T11:35:44.336Z,35.68
2018-12-13T11:38:14.245Z,35.09
2018-12-13T11:40:43.818Z,34.61
2018-12-13T11:43:13.496Z,35.74
2018-12-13T11:45:43.106Z,36.58
2018-12-13T11:48:12.458Z,36.80
2018-12-13T11:50:42.104Z,36.76
2018-12-13T11:53:11.556Z,36.08
2018-12-13T11:55:41.761Z,36.74
2018-12-13T11:58:12.794Z,35.90
2018-12-13T12:00:42.418Z,36.48
2018-12-13T12:03:12.082Z,35.80
2018-12-13T12:05:42.772Z,35.94
2018-12-13T12:08:12.763Z,35.11
2018-12-13T12:10:42.255Z,34.90
2018-12-13T12:13:11.716Z,34.07
2018-12-13T12:15:41.208Z,34.44
2018-12-13T12:18:10.619Z,33.42
2018-12-13T12:20:40.079Z,33.02
2018-12-13T12:23:09.513Z,32.74
2018-12-13T12:25:39.322Z,32.75
2018-12-13T12:28:08.892Z,32.31
2018-12-13T12:30:38.180Z,31.51
2018-12-13T12:33:07.637Z,30.22
2018-12-13T12:35:37.699Z,29.99
2018-12-13T12:38:07.235Z,29.89
2018-12-13T12:40:36.631Z,30.55
2018-12-13T12:43:06.472Z,30.49
2018-12-13T12:45:36.205Z,31.08
2018-12-13T12:48:06.071Z,30.76
2018-12-13T12:50:35.612Z,31.13
2018-12-13T12:53:05.245Z,30.58
2018-12-13T12:55:34.896Z,30.00
2018-12-13T12:58:04.622Z,30.71
2018-12-13T13:00:34.232Z,30.00
2018-12-13T13:03:04.234Z,29.93
2018-12-13T13:05:33.799Z,30.06
2018-12-13T13:08:03.625Z,30.46
2018-12-13T13:10:32.998Z,29.32
2018-12-13T13:13:02.807Z,29.80
2018-12-13T13:15:32.767Z,29.22
2018-12-13T13:18:02.258Z,29.21
2018-12-13T13:20:31.909Z,29.52
2018-12-13T13:23:01.691Z,30.53
2018-12-13T13:25:32.356Z,30.08
2018-12-13T13:28:02.249Z,29.46
2018-12-13T13:30:31.572Z,28.77
2018-12-13T13:33:00.925Z,29.05
2018-12-13T13:35:30.446Z,28.96
2018-12-13T13:37:59.918Z,28.86
2018-12-13T13:40:29.554Z,28.96
2018-12-13T13:42:59.422Z,28.06
2018-12-13T13:45:28.768Z,28.81
2018-12-13T13:47:58.354Z,28.68
2018-12-13T13:50:28.014Z,29.24
2018-12-13T13:52:57.554Z,29.50
2018-12-13T13:55:27.730Z,30.00
2018-12-13T13:57:57.397Z,30.75
2018-12-13T14:00:26.706Z,31.26
2018-12-13T14:02:56.053Z,31.99
2018-12-13T14:05:25.342Z,32.16
2018-12-13T14:07:54.883Z,33.02
2018-12-13T14:10:24.824Z,34.49
2018-12-13T14:12:54.204Z,34.84
2018-12-13T14:15:23.754Z,36.26
2018-12-13T14:17:53.609Z,36.65
2018-12-13T14:20:23.051Z,39.01
2018-12-13T14:22:53.016Z,37.10
2018-12-13T14:25:22.699Z,38.44
2018-12-13T14:27:52.285Z,39.14
2018-12-13T14:30:21.693Z,39.35
2018-12-13T14:32:51.504Z,39.61
2018-12-13T14:35:20.813Z,40.04
2018-12-13T14:37:50.527Z,40.00
2018-12-13T14:40:20.147Z,40.78
2018-12-13T14:42:51.929Z,40.76
2018-12-13T14:45:21.159Z,40.92
2018-12-13T14:47:50.808Z,40.68
2018-12-13T14:50:20.564Z,40.59
2018-12-13T14:52:50.110Z,40.75
2018-12-13T14:55:19.871Z,41.17
2018-12-13T14:57:49.573Z,42.36
2018-12-13T15:00:18.944Z,42.10
2018-12-13T15:02:48.440Z,43.19
2018-12-13T15:05:17.951Z,43.48
2018-12-13T15:07:47.238Z,45.12
2018-12-13T15:10:17.116Z,45.65
2018-12-13T15:12:46.653Z,45.38
2018-12-13T15:15:15.953Z,44.33
2018-12-13T15:17:45.644Z,43.39
2018-12-13T15:20:15.213Z,43.46
2018-12-13T15:22:44.787Z,43.67
2018-12-13T15:25:14.241Z,43.85
2018-12-13T15:27:43.732Z,45.31
2018-12-13T15:30:13.377Z,48.29
2018-12-13T15:32:42.912Z,49.09
2018-12-13T15:35:12.302Z,49.29
2018-12-13T15:37:42.172Z,49.06
2018-12-13T15:40:11.855Z,51.37
2018-12-13T15:42:41.347Z,52.48
2018-12-13T15:45:11.616Z,51.62
2018-12-13T15:47:41.188Z,51.10
2018-12-13T15:50:11.056Z,50.96
2018-12-13T15:52:40.547Z,52.09
2018-12-13T15:55:10.090Z,53.17
2018-12-13T15:57:39.754Z,55.36
2018-12-13T16:00:09.825Z,57.46
2018-12-13T16:02:41.404Z,57.05
2018-12-13T16:05:10.771Z,57.17
2018-12-13T16:07:40.407Z,57.85
2018-12-13T16:10:09.986Z,57.22
2018-12-13T16:12:39.762Z,56.07
2018-12-13T16:15:09.656Z,56.39
2018-12-13T16:17:39.562Z,56.81
2018-12-13T16:20:09.220Z,56.51
2018-12-13T16:22:38.598Z,57.28
2018-12-13T16:25:08.437Z,57.38
2018-12-13T16:27:37.795Z,58.25
2018-12-13T16:30:08.186Z,58.02
2018-12-13T16:32:37.764Z,59.61
2018-12-13T16:35:07.116Z,59.54
2018-12-13T16:37:36.502Z,59.05
2018-12-13T16:40:10.355Z,58.86
2018-12-13T16:42:38.107Z,58.44
2018-12-13T16:45:08.353Z,58.24
2018-12-13T16:47:37.961Z,58.63
2018-12-13T16:50:08.109Z,58.93
2018-12-13T16:52:38.018Z,59.03
2018-12-13T16:55:07.597Z,58.89
2018-12-13T16:57:37.303Z,58.43
2018-12-13T17:00:07.727Z,58.19
2018-12-13T17:02:37.057Z,58.50
2018-12-13T17:05:06.799Z,59.36
2018-12-13T17:07:37.267Z,59.89
2018-12-13T17:10:08.713Z,59.69
2018-12-13T17:12:38.328Z,59.74
2018-12-13T17:15:08.949Z,59.86
2018-12-13T17:17:38.482Z,59.82
2018-12-13T17:20:08.190Z,58.91
2018-12-13T17:22:38.013Z,57.50
2018-12-13T17:25:07.497Z,57.22
2018-12-13T17:27:37.014Z,57.45
2018-12-13T17:30:08.539Z,57.42
2018-12-13T17:32:37.881Z,56.02
2018-12-13T17:35:07.581Z,55.68
2018-12-13T17:37:37.367Z,56.29
2018-12-13T17:40:07.046Z,56.96
2018-12-13T17:42:37.230Z,57.65
2018-12-13T17:45:07.176Z,57.38
2018-12-13T17:47:36.905Z,56.40
2018-12-13T17:50:06.669Z,56.49
2018-12-13T17:52:36.475Z,57.34
2018-12-13T17:55:06.432Z,57.58
2018-12-13T17:57:35.901Z,57.53
2018-12-13T18:00:06.819Z,58.00
2018-12-13T18:02:36.103Z,58.36
2018-12-13T18:05:05.752Z,58.22
2018-12-13T18:07:35.492Z,58.13
2018-12-13T18:10:05.971Z,57.83
2018-12-13T18:12:35.728Z,57.81
2018-12-13T18:15:05.859Z,58.21
2018-12-13T18:17:35.553Z,58.14
2018-12-13T18:20:05.907Z,57.71
2018-12-13T18:22:35.443Z,57.19
2018-12-13T18:25:05.333Z,57.83
2018-12-13T18:27:35.000Z,57.98
2018-12-13T18:30:04.678Z,58.14
2018-12-13T18:32:34.002Z,57.71
2018-12-13T18:35:03.456Z,57.66
2018-12-13T18:37:32.833Z,56.81
2018-12-13T18:40:02.376Z,56.35
2018-12-13T18:42:31.849Z,55.76
2018-12-13T18:45:01.527Z,57.18
2018-12-13T18:47:31.549Z,57.51
2018-12-13T18:50:00.969Z,57.36
2018-12-13T18:52:30.530Z,58.16
2018-12-13T18:55:00.053Z,58.35
2018-12-13T18:57:29.556Z,58.07
2018-12-13T18:59:58.849Z,58.05
2018-12-13T19:02:28.098Z,57.54
2018-12-13T19:04:57.692Z,56.87
2018-12-13T19:07:27.386Z,56.47
2018-12-13T19:09:57.123Z,55.70
2018-12-13T19:12:26.704Z,55.16
2018-12-13T19:14:56.289Z,55.34
2018-12-13T19:17:25.960Z,55.05
2018-12-13T19:19:55.595Z,54.78
2018-12-13T19:22:26.566Z,55.38
2018-12-13T19:24:55.892Z,55.86
2018-12-13T19:27:25.164Z,55.95
2018-12-13T19:29:54.795Z,55.55
2018-12-13T19:32:24.245Z,55.03
2018-12-13T19:35:00.168Z,55.02
2018-12-13T19:37:25.660Z,54.15
2018-12-13T19:39:55.343Z,53.27
2018-12-13T19:42:24.860Z,52.84
2018-12-13T19:44:54.566Z,53.57
2018-12-13T19:47:24.160Z,53.17
2018-12-13T19:49:53.787Z,54.05
2018-12-13T19:52:23.670Z,55.07
2018-12-13T19:54:53.023Z,54.83
2018-12-13T19:57:22.947Z,54.98
2018-12-13T19:59:52.288Z,55.20
2018-12-13T20:02:21.848Z,55.50
2018-12-13T20:04:51.591Z,55.14
2018-12-13T20:07:21.201Z,55.12
2018-12-13T20:09:50.648Z,54.22
2018-12-13T20:12:20.539Z,54.22
2018-12-13T20:14:50.401Z,54.75
2018-12-13T20:17:20.238Z,54.61
2018-12-13T20:19:49.780Z,54.71
2018-12-13T20:22:19.195Z,55.25
2018-12-13T20:24:48.961Z,56.94
2018-12-13T20:27:18.392Z,57.17
2018-12-13T20:29:47.691Z,57.22
2018-12-13T20:32:17.882Z,57.24
2018-12-13T20:34:47.470Z,57.69
2018-12-13T20:37:17.066Z,57.76
2018-12-13T20:39:46.744Z,57.55
2018-12-13T20:42:16.192Z,56.77
2018-12-13T20:44:45.787Z,56.92
2018-12-13T20:47:15.439Z,56.35
2018-12-13T20:49:44.808Z,56.48
2018-12-13T20:52:14.193Z,56.65
2018-12-13T20:54:43.766Z,56.57
2018-12-13T20:57:13.147Z,56.33
2018-12-13T20:59:42.612Z,55.50
2018-12-13T21:02:12.588Z,55.20
2018-12-13T21:04:41.793Z,54.76
2018-12-13T21:07:16.499Z,54.52
2018-12-13T21:09:45.886Z,54.99
2018-12-13T21:12:15.868Z,54.74
2018-12-13T21:14:45.452Z,54.52
2018-12-13T21:17:15.008Z,54.83
2018-12-13T21:19:44.572Z,55.24
2018-12-13T21:22:14.140Z,55.24
2018-12-13T21:24:43.495Z,55.26
2018-12-13T21:27:12.788Z,54.85
2018-12-13T21:29:42.608Z,54.53
2018-12-13T21:32:12.116Z,54.01
2018-12-13T21:34:41.922Z,53.29
2018-12-13T21:37:11.601Z,53.76
2018-12-13T21:39:41.279Z,53.45
2018-12-13T21:42:10.783Z,53.38
2018-12-13T21:44:40.701Z,54.01
2018-12-13T21:47:10.305Z,53.60
2018-12-13T21:49:39.829Z,54.30
2018-12-13T21:52:09.660Z,53.93
2018-12-13T21:54:39.118Z,53.96
2018-12-13T21:57:08.544Z,53.93
2018-12-13T21:59:38.476Z,54.21
2018-12-13T22:02:07.836Z,54.59
2018-12-13T22:04:37.693Z,54.45
2018-12-13T22:07:07.431Z,55.21
2018-12-13T22:09:36.886Z,54.40
2018-12-13T22:12:06.624Z,54.03
2018-12-13T22:14:36.076Z,54.07
2018-12-13T22:17:05.507Z,54.04
2018-12-13T22:19:35.027Z,54.25
2018-12-13T22:22:04.631Z,53.76
2018-12-13T22:24:34.485Z,54.16
2018-12-13T22:27:03.935Z,54.19
2018-12-13T22:29:33.504Z,55.08
2018-12-13T22:32:04.029Z,56.33
2018-12-13T22:34:33.710Z,56.88
2018-12-13T22:37:03.535Z,57.38
2018-12-13T22:39:33.251Z,56.67
2018-12-13T22:42:02.715Z,57.59
2018-12-13T22:44:32.097Z,58.80
2018-12-13T22:47:01.857Z,58.95
2018-12-13T22:49:31.439Z,59.17
2018-12-13T22:52:01.028Z,58.03
2018-12-13T22:54:30.577Z,57.88
2018-12-13T22:56:59.884Z,56.79
2018-12-13T22:59:29.495Z,56.63
2018-12-13T23:01:58.944Z,56.44
2018-12-13T23:04:28.550Z,57.91
2018-12-13T23:06:58.085Z,58.16
2018-12-13T23:09:27.539Z,57.79
2018-12-13T23:11:57.506Z,57.51
2018-12-13T23:14:27.665Z,57.24
2018-12-13T23:16:57.194Z,56.46
2018-12-13T23:19:26.854Z,58.50
2018-12-13T23:21:56.113Z,60.62
2018-12-13T23:24:25.517Z,60.32
2018-12-13T23:26:55.271Z,60.58
2018-12-13T23:29:24.834Z,60.90
2018-12-13T23:31:54.403Z,61.68
2018-12-13T23:34:24.104Z,61.18
2018-12-13T23:36:54.362Z,61.97
2018-12-13T23:39:23.757Z,61.11
2018-12-13T23:41:53.154Z,60.26
2018-12-13T23:44:22.696Z,60.35
2018-12-13T23:46:52.403Z,60.08
2018-12-13T23:49:22.174Z,60.71
2018-12-13T23:51:51.728Z,61.23
2018-12-13T23:54:21.009Z,61.78
2018-12-13T23:56:50.683Z,61.89
2018-12-13T23:59:20.150Z,61.41
